Toll Gate Heights, Indiana
Current Conditions -  °F | °C
As of 1:55 PM on Sunday 23 Nov 2014 (Local Time) from KHHG Reporting Station
Moderate Rain Moderate Rain  
Wind Chill: 55°   Ceiling: 2500
Heat Index: 55°   Visibility: 7mi
Dew Point: 50°   Wind: 9mph
Humidity: 84%   Direction: 180°S
Pressure: 29.68"   Gusts: NA
Location:  40.7175°N, 85.1549°W
Report Text: KHHG 231855Z AUTO 18008KT 7SM RA OVC025 13/10 A2968 RMK AO2 P0001 T01270101
Loading
Personal Weather Stations






























Interactive Weather Map New forecast layout! Learn more

10-Day Weather Forecast

Advertisements
Track Severe Weather on mobile